Time;durP1;ratioP1;P1;durP2;ratioP2;P2;SDS_P1;SDS_P2;PMS_P1;PMS_P2;Temp;Humidity;BMP_temperature;BMP_pressure;BME280_temperature;BME280_humidity;BME280_pressure;Samples;Min_cycle;Max_cycle;Signal;HPM_P1;HPM_P2
2022/05/28 00:01:35;;;;;;;8.53;4.60;;;10.20;99.90;;;;;;6191886;23;20428;-78
2022/05/28 00:04:04;;;;;;;9.20;4.77;;;10.20;99.90;;;;;;6164060;23;20440;-79
2022/05/28 00:06:35;;;;;;;10.50;4.80;;;10.20;99.90;;;;;;6187315;23;20910;-79
2022/05/28 00:09:05;;;;;;;8.80;4.17;;;10.30;99.90;;;;;;6160495;23;20754;-79
2022/05/28 00:11:35;;;;;;;11.40;5.00;;;10.20;99.90;;;;;;6161830;23;20526;-79
2022/05/28 00:14:04;;;;;;;9.87;5.23;;;10.20;99.90;;;;;;6164776;23;20463;-79
2022/05/28 00:16:34;;;;;;;10.30;5.70;;;10.20;99.90;;;;;;6165838;23;20506;-79
2022/05/28 00:19:03;;;;;;;8.03;6.07;;;10.20;99.90;;;;;;6202785;23;20380;-79
2022/05/28 00:21:32;;;;;;;9.67;5.43;;;10.20;99.90;;;;;;6165750;23;20443;-79
2022/05/28 00:24:00;;;;;;;8.70;4.77;;;10.20;99.90;;;;;;6166379;23;20431;-80
2022/05/28 00:26:28;;;;;;;9.03;4.63;;;10.20;99.90;;;;;;6167346;23;20427;-80
2022/05/28 00:28:56;;;;;;;8.40;5.07;;;10.20;99.90;;;;;;6193940;23;20407;-80
2022/05/28 00:31:25;;;;;;;9.70;4.70;;;10.20;99.90;;;;;;6167275;23;20435;-80
2022/05/28 00:33:54;;;;;;;12.17;5.23;;;10.20;99.90;;;;;;6193182;23;20424;-80
2022/05/28 00:36:22;;;;;;;7.47;5.17;;;10.20;99.90;;;;;;6166154;23;20470;-80
2022/05/28 00:38:51;;;;;;;8.27;5.50;;;10.20;99.90;;;;;;6192433;23;20410;-80
2022/05/28 00:41:19;;;;;;;16.87;6.37;;;10.10;99.90;;;;;;6166117;23;20495;-80
2022/05/28 00:43:48;;;;;;;12.97;6.27;;;10.10;99.90;;;;;;6166307;23;20495;-80
2022/05/28 00:46:20;;;;;;;10.97;6.70;;;10.10;99.90;;;;;;6165708;23;20447;-79
2022/05/28 00:48:52;;;;;;;13.30;5.97;;;10.20;99.90;;;;;;6165834;23;20415;-79
2022/05/28 00:51:28;;;;;;;11.77;5.67;;;10.20;99.90;;;;;;6166322;23;20427;-80
2022/05/28 00:54:02;;;;;;;12.10;5.90;;;10.20;99.90;;;;;;6168514;23;20445;-80
2022/05/28 00:56:30;;;;;;;14.23;7.33;;;10.10;99.90;;;;;;6203995;23;20456;-80
2022/05/28 00:58:59;;;;;;;11.80;6.13;;;10.20;99.90;;;;;;6168045;23;20522;-80
2022/05/28 01:01:30;;;;;;;10.37;5.57;;;10.10;99.90;;;;;;6193993;23;20808;-80
2022/05/28 01:04:18;;;;;;;9.80;5.40;;;10.20;99.90;;;;;;6167452;23;20442;-80
2022/05/28 01:06:55;;;;;;;10.97;5.23;;;10.20;99.90;;;;;;6167717;23;20412;-80
2022/05/28 01:09:29;;;;;;;10.10;5.60;;;10.20;99.90;;;;;;6166706;23;20811;-80
2022/05/28 01:12:10;;;;;;;15.60;5.13;;;10.20;99.90;;;;;;6167004;23;20451;-80
2022/05/28 01:14:46;;;;;;;12.90;5.50;;;10.20;99.90;;;;;;6165761;23;20442;-79
2022/05/28 01:17:19;;;;;;;12.00;5.33;;;10.20;99.90;;;;;;6165737;23;20407;-80
2022/05/28 01:20:01;;;;;;;12.70;5.60;;;10.20;99.90;;;;;;6192942;23;20396;-80
2022/05/28 01:22:43;;;;;;;12.30;6.47;;;10.20;99.90;;;;;;6165639;23;20442;-80
2022/05/28 01:25:19;;;;;;;11.53;5.40;;;10.10;99.90;;;;;;6192814;23;20396;-80
2022/05/28 01:27:51;;;;;;;10.90;4.23;;;10.10;99.90;;;;;;6165593;23;20498;-80
2022/05/28 01:30:19;;;;;;;12.23;5.50;;;10.10;99.90;;;;;;6164878;23;20447;-80
2022/05/28 01:32:54;;;;;;;12.13;5.20;;;10.10;99.90;;;;;;6191983;23;20459;-79
2022/05/28 01:35:24;;;;;;;9.70;5.47;;;10.10;99.90;;;;;;6202222;23;20827;-80
2022/05/28 01:37:52;;;;;;;11.80;5.30;;;10.10;99.90;;;;;;6192042;23;20395;-80
2022/05/28 01:40:23;;;;;;;10.37;4.90;;;10.10;99.90;;;;;;6165487;23;20447;-80
2022/05/28 01:42:55;;;;;;;11.43;4.90;;;10.10;99.90;;;;;;6165106;23;20432;-80
2022/05/28 01:45:27;;;;;;;11.93;5.50;;;10.10;99.90;;;;;;6164952;23;20407;-80
2022/05/28 01:47:59;;;;;;;9.30;5.17;;;10.10;99.90;;;;;;6164831;23;20419;-80
2022/05/28 01:50:30;;;;;;;12.60;5.20;;;10.00;99.90;;;;;;6164982;23;20407;-80
2022/05/28 01:53:03;;;;;;;10.37;5.00;;;10.00;99.90;;;;;;6165611;23;20546;-81
2022/05/28 01:55:36;;;;;;;14.17;7.03;;;10.00;99.90;;;;;;6164843;23;20476;-80
2022/05/28 01:58:06;;;;;;;11.13;5.10;;;10.00;99.90;;;;;;6165351;23;20412;-80
2022/05/28 02:00:34;;;;;;;11.13;4.70;;;10.00;99.90;;;;;;6164720;23;21026;-80
2022/05/28 02:03:04;;;;;;;9.60;4.50;;;10.00;99.90;;;;;;6165020;23;20517;-80
2022/05/28 02:05:32;;;;;;;11.93;5.00;;;10.00;99.90;;;;;;6164132;23;20972;-80
2022/05/28 02:08:00;;;;;;;11.10;5.17;;;10.00;99.90;;;;;;6163925;23;20412;-80
2022/05/28 02:10:28;;;;;;;11.20;6.07;;;10.00;99.90;;;;;;6163863;23;20899;-80
2022/05/28 02:13:09;;;;;;;13.77;4.97;;;9.90;99.90;;;;;;6163711;23;20890;-80
2022/05/28 02:15:43;;;;;;;7.90;5.13;;;9.90;99.90;;;;;;6164812;23;20439;-80
2022/05/28 02:18:24;;;;;;;10.77;5.30;;;9.90;99.90;;;;;;6200583;23;20411;-80
2022/05/28 02:21:01;;;;;;;8.93;6.13;;;10.00;99.90;;;;;;6191785;23;20411;-80
2022/05/28 02:23:35;;;;;;;14.40;4.90;;;9.90;99.90;;;;;;6171199;23;20509;-80
2022/05/28 02:26:09;;;;;;;15.90;5.70;;;9.90;99.90;;;;;;6194852;23;20419;-81
2022/05/28 02:28:41;;;;;;;11.80;5.63;;;9.90;99.90;;;;;;6203713;23;20388;-80
2022/05/28 02:31:14;;;;;;;12.07;4.80;;;9.90;99.90;;;;;;6166554;23;20404;-80
2022/05/28 02:33:44;;;;;;;11.93;5.50;;;9.90;99.90;;;;;;6165429;23;20443;-80
2022/05/28 02:36:14;;;;;;;11.20;5.60;;;9.90;99.90;;;;;;6165919;23;20800;-80
2022/05/28 02:38:43;;;;;;;11.10;5.10;;;9.90;99.90;;;;;;6165477;23;20407;-80
2022/05/28 02:41:11;;;;;;;14.30;5.77;;;9.90;99.90;;;;;;6165602;23;20506;-80
2022/05/28 02:43:41;;;;;;;9.90;4.90;;;9.80;99.90;;;;;;6192316;23;20439;-79
2022/05/28 02:46:10;;;;;;;12.93;5.10;;;9.80;99.90;;;;;;6165474;23;20416;-80
2022/05/28 02:48:39;;;;;;;11.67;6.30;;;9.80;99.90;;;;;;6201505;23;20468;-80
2022/05/28 02:51:10;;;;;;;12.13;5.83;;;9.80;99.90;;;;;;6164735;23;20478;-79
2022/05/28 02:53:38;;;;;;;11.60;5.90;;;9.80;99.90;;;;;;6164493;23;20834;-79
2022/05/28 02:56:07;;;;;;;14.30;5.93;;;9.80;99.90;;;;;;6164823;23;20499;-80
2022/05/28 02:58:36;;;;;;;15.80;6.27;;;9.80;99.90;;;;;;6201107;23;20891;-80
2022/05/28 03:01:17;;;;;;;13.87;6.40;;;9.80;99.90;;;;;;6164277;23;20470;-80
2022/05/28 03:03:46;;;;;;;10.70;5.07;;;9.80;99.90;;;;;;6164779;23;20931;-80
2022/05/28 03:06:14;;;;;;;11.30;5.53;;;9.80;99.90;;;;;;6163822;23;20494;-79
2022/05/28 03:08:43;;;;;;;13.43;6.40;;;9.80;99.90;;;;;;6163552;23;20419;-80
2022/05/28 03:11:11;;;;;;;12.70;5.07;;;9.80;99.90;;;;;;6163321;23;20495;-79
2022/05/28 03:13:40;;;;;;;10.47;5.97;;;9.80;99.90;;;;;;6163294;23;20451;-81
2022/05/28 03:16:09;;;;;;;14.93;5.70;;;9.80;99.90;;;;;;6163557;23;20509;-80
2022/05/28 03:18:38;;;;;;;15.13;6.33;;;9.80;99.90;;;;;;6164958;23;20423;-81
2022/05/28 03:21:08;;;;;;;11.73;5.63;;;9.80;99.90;;;;;;6163672;23;20420;-80
2022/05/28 03:23:36;;;;;;;9.53;5.33;;;9.80;99.90;;;;;;6163769;23;20474;-80
2022/05/28 03:26:12;;;;;;;15.70;5.30;;;9.70;99.90;;;;;;6190141;23;20435;-80
2022/05/28 03:28:40;;;;;;;8.80;5.00;;;9.80;99.90;;;;;;6162918;23;20430;-80
2022/05/28 03:31:10;;;;;;;13.80;6.27;;;9.80;99.90;;;;;;6162854;23;20916;-80
2022/05/28 03:33:38;;;;;;;12.70;5.63;;;9.80;99.90;;;;;;6163238;23;20457;-80
2022/05/28 03:36:07;;;;;;;12.97;5.63;;;9.80;99.90;;;;;;6163676;23;20419;-80
2022/05/28 03:38:36;;;;;;;12.63;5.73;;;9.80;99.90;;;;;;6199857;23;20410;-80
2022/05/28 03:41:05;;;;;;;12.90;5.70;;;9.90;99.90;;;;;;6163495;23;20411;-79
2022/05/28 03:43:33;;;;;;;16.30;5.73;;;9.90;99.90;;;;;;6162857;23;20927;-79
2022/05/28 03:46:02;;;;;;;13.80;6.07;;;9.90;99.90;;;;;;6189907;23;20412;-79
2022/05/28 03:48:33;;;;;;;14.27;5.60;;;9.90;99.90;;;;;;6163165;23;20426;-80
2022/05/28 03:51:01;;;;;;;13.93;5.57;;;9.90;99.90;;;;;;6164066;23;20412;-79
2022/05/28 03:53:29;;;;;;;23.43;7.63;;;9.90;99.90;;;;;;6164470;23;20510;-80
2022/05/28 03:55:58;;;;;;;13.43;5.83;;;10.00;99.90;;;;;;6163472;23;20443;-79
2022/05/28 03:58:26;;;;;;;7.57;5.37;;;10.00;99.90;;;;;;6164411;23;20502;-80
2022/05/28 04:00:55;;;;;;;11.53;4.97;;;10.00;99.90;;;;;;6163105;23;20474;-79
2022/05/28 04:03:23;;;;;;;15.17;5.67;;;10.00;99.90;;;;;;6200098;23;20420;-81
2022/05/28 04:05:53;;;;;;;10.30;5.10;;;10.10;99.90;;;;;;6189977;23;20808;-79
2022/05/28 04:08:22;;;;;;;13.10;5.60;;;10.10;99.90;;;;;;6165010;23;20416;-80
2022/05/28 04:10:50;;;;;;;13.73;5.73;;;10.30;99.90;;;;;;6191085;23;20411;-79
2022/05/28 04:13:18;;;;;;;13.00;5.57;;;10.20;99.90;;;;;;6200733;23;20436;-80
2022/05/28 04:15:49;;;;;;;15.23;5.50;;;10.20;99.90;;;;;;6164129;23;20415;-80
2022/05/28 04:18:17;;;;;;;12.77;5.77;;;10.20;99.90;;;;;;6163229;23;20415;-81
2022/05/28 04:20:45;;;;;;;13.50;6.60;;;10.10;99.90;;;;;;6162872;23;20451;-79
2022/05/28 04:23:15;;;;;;;15.63;6.60;;;10.20;99.90;;;;;;6166005;23;20438;-80
2022/05/28 04:25:43;;;;;;;12.40;5.97;;;10.20;99.90;;;;;;6167165;23;20720;-80
2022/05/28 04:28:11;;;;;;;11.60;6.00;;;10.20;99.90;;;;;;6204385;23;20388;-81
2022/05/28 04:30:39;;;;;;;10.00;5.27;;;10.30;99.90;;;;;;6166752;23;20413;-79
2022/05/28 04:33:08;;;;;;;12.63;6.20;;;10.20;99.90;;;;;;6202500;23;20459;-80
2022/05/28 04:35:36;;;;;;;12.37;4.60;;;10.20;99.90;;;;;;6165527;23;20420;-80
2022/05/28 04:38:05;;;;;;;11.50;6.20;;;10.30;99.90;;;;;;6165476;23;20423;-79
2022/05/28 04:40:34;;;;;;;11.83;5.53;;;10.30;99.90;;;;;;6191153;23;20491;-80
2022/05/28 04:43:18;;;;;;;11.03;5.33;;;10.30;99.90;;;;;;5135442;27;20556;-81
2022/05/28 04:45:47;;;;;;;12.13;5.37;;;10.30;99.90;;;;;;5135625;28;20452;-80
2022/05/28 04:48:16;;;;;;;13.60;5.30;;;10.40;99.90;;;;;;5135054;28;20438;-79
2022/05/28 04:50:44;;;;;;;11.67;5.67;;;10.40;99.90;;;;;;5134984;28;20523;-79
2022/05/28 04:53:13;;;;;;;10.00;5.37;;;10.40;99.90;;;;;;5134664;28;20458;-80
2022/05/28 04:55:41;;;;;;;9.40;5.00;;;10.50;99.90;;;;;;5134459;28;20446;-80
2022/05/28 04:58:12;;;;;;;13.83;5.60;;;10.40;99.90;;;;;;5134407;28;20447;-79
2022/05/28 05:00:43;;;;;;;11.00;4.90;;;10.50;99.90;;;;;;5134265;28;21026;-81
2022/05/28 05:03:12;;;;;;;12.93;5.07;;;10.50;99.90;;;;;;5135579;27;20565;-81
2022/05/28 05:05:41;;;;;;;14.50;6.20;;;10.50;99.90;;;;;;5134131;28;20525;-80
2022/05/28 05:08:09;;;;;;;10.70;5.00;;;10.50;99.90;;;;;;5134556;27;20439;-79
2022/05/28 05:10:38;;;;;;;11.57;5.33;;;10.50;99.90;;;;;;5134779;28;20447;-81
2022/05/28 05:13:07;;;;;;;11.87;5.90;;;10.50;99.90;;;;;;5133959;28;20564;-80
2022/05/28 05:15:35;;;;;;;14.40;5.30;;;10.50;99.90;;;;;;5135102;27;20446;-81
2022/05/28 05:18:05;;;;;;;12.10;5.70;;;10.60;99.90;;;;;;5133876;28;20438;-79
2022/05/28 05:20:33;;;;;;;12.63;5.63;;;10.60;99.90;;;;;;5134917;27;20431;-81
2022/05/28 05:23:01;;;;;;;14.50;6.23;;;10.70;99.90;;;;;;5134831;27;20489;-79
2022/05/28 05:25:30;;;;;;;15.23;5.90;;;10.70;99.90;;;;;;5133364;28;20450;-79
2022/05/28 05:27:58;;;;;;;14.80;7.03;;;10.70;99.90;;;;;;5133188;28;20537;-81
2022/05/28 05:30:26;;;;;;;13.67;5.90;;;10.70;99.90;;;;;;5133079;28;20546;-81
2022/05/28 05:32:55;;;;;;;10.47;6.23;;;10.80;99.90;;;;;;5133522;28;20462;-78
2022/05/28 05:35:25;;;;;;;12.03;6.03;;;10.90;99.90;;;;;;5135134;27;20434;-80
2022/05/28 05:37:53;;;;;;;11.90;5.80;;;11.00;99.90;;;;;;5133579;28;20542;-80
2022/05/28 05:40:21;;;;;;;12.50;5.10;;;11.10;99.90;;;;;;5137412;28;20453;-81
2022/05/28 05:42:49;;;;;;;11.10;4.77;;;11.10;99.90;;;;;;5132201;28;20488;-80
2022/05/28 05:45:18;;;;;;;12.07;5.40;;;11.10;99.90;;;;;;5132211;28;20443;-82
2022/05/28 05:47:46;;;;;;;9.30;5.63;;;11.20;99.90;;;;;;5134107;27;20486;-79
2022/05/28 05:50:14;;;;;;;14.87;6.40;;;11.40;99.90;;;;;;5133152;28;20442;-82
2022/05/28 05:52:44;;;;;;;13.13;5.53;;;11.60;99.90;;;;;;5129972;28;20490;-80
2022/05/28 05:55:16;;;;;;;9.37;5.00;;;11.80;99.90;;;;;;5120029;28;20432;-80
2022/05/28 05:57:44;;;;;;;10.07;5.57;;;12.10;99.90;;;;;;5119478;28;20451;-79
2022/05/28 06:00:13;;;;;;;12.70;5.37;;;12.30;99.90;;;;;;5119310;28;20431;-83
2022/05/28 06:02:42;;;;;;;11.70;5.77;;;12.50;99.90;;;;;;5118872;28;20523;-82
2022/05/28 06:05:10;;;;;;;10.83;6.00;;;12.70;99.90;;;;;;5120557;28;20878;-81
2022/05/28 06:07:38;;;;;;;10.07;4.97;;;12.80;99.90;;;;;;5118805;28;20487;-80
2022/05/28 06:10:11;;;;;;;11.67;5.93;;;12.80;99.90;;;;;;5118536;28;20451;-83
2022/05/28 06:12:39;;;;;;;9.43;5.83;;;12.70;99.90;;;;;;5118465;28;20501;-82
2022/05/28 06:15:09;;;;;;;12.63;6.03;;;12.60;99.90;;;;;;5118383;28;20544;-80
2022/05/28 06:17:38;;;;;;;16.27;6.43;;;12.60;99.90;;;;;;5119680;28;20435;-82
2022/05/28 06:20:10;;;;;;;8.87;5.10;;;12.50;99.90;;;;;;5118096;28;20453;-81
2022/05/28 06:22:39;;;;;;;16.77;5.50;;;12.50;99.90;;;;;;5122988;28;20471;-79
2022/05/28 06:25:09;;;;;;;12.00;6.73;;;12.40;99.90;;;;;;5132172;28;20439;-80
2022/05/28 06:27:38;;;;;;;11.90;5.70;;;12.50;99.90;;;;;;5131844;28;20917;-80
2022/05/28 06:30:07;;;;;;;9.47;5.80;;;12.50;99.90;;;;;;5124016;28;20940;-81
2022/05/28 06:32:35;;;;;;;8.83;5.67;;;12.50;99.90;;;;;;5125684;28;20463;-79
2022/05/28 06:35:04;;;;;;;15.43;6.30;;;12.60;99.90;;;;;;5120221;28;20449;-81
2022/05/28 06:37:32;;;;;;;14.90;6.83;;;12.80;99.90;;;;;;5132005;28;20436;-81
2022/05/28 06:40:00;;;;;;;9.13;5.50;;;13.10;99.90;;;;;;5135630;28;20446;-81
2022/05/28 06:42:30;;;;;;;8.93;5.17;;;13.40;99.90;;;;;;5133791;28;20475;-81
2022/05/28 06:44:59;;;;;;;10.50;6.27;;;13.70;99.90;;;;;;5133324;28;20442;-81
2022/05/28 06:47:28;;;;;;;11.47;6.93;;;13.90;99.90;;;;;;5134848;28;20447;-82
2022/05/28 06:52:42;;;;;;;12.10;6.00;;;14.40;99.90;;;;;;5133325;28;20455;-81
2022/05/28 06:55:10;;;;;;;17.67;6.77;;;14.60;99.90;;;;;;5135973;28;20471;-80
2022/05/28 06:57:40;;;;;;;12.70;6.87;;;14.60;99.90;;;;;;5136088;27;20432;-81
2022/05/28 07:00:09;;;;;;;15.07;7.93;;;14.80;99.90;;;;;;5135952;28;20510;-78
2022/05/28 07:02:38;;;;;;;11.33;6.40;;;14.80;99.90;;;;;;5136928;28;20469;-83
2022/05/28 07:05:06;;;;;;;15.10;6.03;;;14.80;99.90;;;;;;5136264;28;20459;-80
2022/05/28 07:07:35;;;;;;;12.40;6.40;;;14.90;99.90;;;;;;5135439;28;20443;-79
2022/05/28 07:10:04;;;;;;;12.30;6.57;;;14.80;99.90;;;;;;5132285;28;20450;-81
2022/05/28 07:12:33;;;;;;;10.40;5.10;;;14.60;99.90;;;;;;5130946;28;20542;-82
2022/05/28 07:15:02;;;;;;;9.43;6.17;;;14.50;99.90;;;;;;5131008;28;20440;-82
2022/05/28 07:17:30;;;;;;;10.00;5.73;;;14.60;99.90;;;;;;5130695;28;20435;-82
2022/05/28 07:19:59;;;;;;;10.63;6.00;;;14.80;99.90;;;;;;5130790;28;20463;-83
2022/05/28 07:22:28;;;;;;;19.20;7.07;;;14.90;99.90;;;;;;5127152;28;20446;-81
2022/05/28 07:24:56;;;;;;;9.40;5.60;;;15.00;99.90;;;;;;5124154;28;20444;-80
2022/05/28 07:27:25;;;;;;;12.10;6.37;;;15.20;99.90;;;;;;5121389;28;20447;-81
2022/05/28 07:29:55;;;;;;;12.13;7.63;;;15.40;99.90;;;;;;5117565;28;20475;-83
2022/05/28 07:32:30;;;;;;;10.60;6.10;;;15.30;99.90;;;;;;5117268;28;20458;-82
2022/05/28 07:34:59;;;;;;;13.67;6.90;;;15.00;99.90;;;;;;5116535;28;20413;-79
2022/05/28 07:37:31;;;;;;;10.43;6.37;;;14.70;99.90;;;;;;5117232;28;20455;-81
2022/05/28 07:39:59;;;;;;;14.30;7.23;;;14.40;99.90;;;;;;5119653;28;20473;-82
2022/05/28 07:42:28;;;;;;;11.53;6.70;;;14.20;99.90;;;;;;5118881;28;20466;-79
2022/05/28 07:44:56;;;;;;;10.87;6.97;;;14.00;99.90;;;;;;5119244;27;20442;-79
2022/05/28 07:47:26;;;;;;;13.50;6.20;;;13.90;99.90;;;;;;5119167;28;20444;-80
2022/05/28 07:49:54;;;;;;;13.87;7.30;;;13.90;99.90;;;;;;5117259;28;20451;-80
2022/05/28 07:52:22;;;;;;;9.87;6.63;;;14.00;99.90;;;;;;5117472;28;20547;-82
2022/05/28 07:54:50;;;;;;;12.30;6.43;;;14.00;99.90;;;;;;5117415;28;20513;-79
2022/05/28 07:57:19;;;;;;;11.10;6.50;;;14.10;99.90;;;;;;5116188;28;20444;-81
2022/05/28 07:59:47;;;;;;;8.20;6.30;;;14.10;99.90;;;;;;5118709;28;20443;-81
2022/05/28 08:02:15;;;;;;;13.73;7.67;;;14.10;99.90;;;;;;5117285;28;20452;-81
2022/05/28 08:04:45;;;;;;;14.43;6.90;;;14.20;99.90;;;;;;5116568;28;20471;-79
2022/05/28 08:07:13;;;;;;;18.40;8.87;;;14.30;99.90;;;;;;5115900;28;20497;-81
2022/05/28 08:09:41;;;;;;;15.77;8.93;;;14.50;99.90;;;;;;5115194;28;20474;-78
2022/05/28 08:12:10;;;;;;;11.67;7.10;;;14.60;99.90;;;;;;5115236;28;20854;-81
2022/05/28 08:14:39;;;;;;;15.00;7.83;;;14.70;99.90;;;;;;5114229;28;20464;-81
2022/05/28 08:17:07;;;;;;;13.03;7.17;;;14.80;99.90;;;;;;5116124;28;20482;-81
2022/05/28 08:19:35;;;;;;;11.53;8.30;;;15.00;99.90;;;;;;5116701;28;20500;-78
2022/05/28 08:24:55;;;;;;;13.10;6.67;;;15.20;99.90;;;;;;5115899;28;20566;-80
2022/05/28 08:27:23;;;;;;;10.97;6.93;;;15.30;99.40;;;;;;5117631;28;20455;-81
2022/05/28 08:29:51;;;;;;;13.50;6.40;;;15.40;98.90;;;;;;5122537;28;20528;-83
2022/05/28 08:32:19;;;;;;;10.10;5.90;;;15.40;98.50;;;;;;5117770;28;20451;-81
2022/05/28 08:34:48;;;;;;;9.87;5.83;;;15.50;98.80;;;;;;5117742;28;21009;-81
2022/05/28 08:37:17;;;;;;;11.23;6.07;;;15.50;98.60;;;;;;5116749;28;20542;-81
2022/05/28 08:39:45;;;;;;;11.63;6.10;;;15.40;98.60;;;;;;5116693;28;20451;-82
2022/05/28 08:42:15;;;;;;;12.00;6.43;;;15.40;98.30;;;;;;5118492;28;20439;-80
2022/05/28 08:44:44;;;;;;;10.00;6.10;;;15.20;97.90;;;;;;5116592;28;20524;-82
2022/05/28 08:47:21;;;;;;;8.57;6.17;;;15.00;98.20;;;;;;5116090;28;20439;-80
2022/05/28 08:49:51;;;;;;;17.90;7.00;;;14.80;98.40;;;;;;5115934;28;20915;-79
2022/05/28 08:52:26;;;;;;;10.40;6.00;;;14.60;98.50;;;;;;5116736;28;20440;-82
2022/05/28 08:54:58;;;;;;;12.80;6.63;;;14.50;98.70;;;;;;5116444;28;20467;-82
2022/05/28 08:57:40;;;;;;;9.00;6.27;;;14.40;98.60;;;;;;5115711;28;20439;-78
2022/05/28 09:00:14;;;;;;;11.70;5.33;;;14.30;98.80;;;;;;5114866;28;21043;-80
2022/05/28 09:02:45;;;;;;;10.47;5.63;;;14.30;98.70;;;;;;5116124;28;20471;-80
2022/05/28 09:05:26;;;;;;;17.53;6.10;;;14.40;98.70;;;;;;5098345;28;20494;-81
2022/05/28 09:07:59;;;;;;;11.40;7.17;;;14.50;98.40;;;;;;5096937;28;20451;-82
2022/05/28 09:10:32;;;;;;;11.03;6.30;;;14.60;98.60;;;;;;5094109;28;20957;-82
2022/05/28 09:13:05;;;;;;;13.80;6.73;;;14.80;98.60;;;;;;5094466;28;20464;-80
2022/05/28 09:15:36;;;;;;;10.03;7.20;;;15.00;98.60;;;;;;5094800;28;20654;-81
2022/05/28 09:18:06;;;;;;;10.80;5.43;;;15.10;98.20;;;;;;5094357;28;20428;-81
2022/05/28 09:20:38;;;;;;;7.27;5.83;;;15.20;97.90;;;;;;5094009;28;20456;-81
2022/05/28 09:23:08;;;;;;;11.80;5.63;;;15.30;97.70;;;;;;5094610;28;20548;-81
2022/05/28 09:25:43;;;;;;;11.90;5.00;;;15.50;97.60;;;;;;5095450;28;20443;-80
2022/05/28 09:28:25;;;;;;;9.37;5.30;;;15.60;97.40;;;;;;5096099;28;20432;-82
2022/05/28 09:31:01;;;;;;;11.03;4.90;;;15.50;96.80;;;;;;5098659;28;20497;-80
2022/05/28 09:33:47;;;;;;;9.37;4.33;;;15.40;97.00;;;;;;5099291;28;20460;-79
2022/05/28 09:36:26;;;;;;;9.97;5.17;;;15.20;97.10;;;;;;5099129;28;20929;-80
2022/05/28 09:39:04;;;;;;;11.13;4.87;;;15.00;97.40;;;;;;5100743;28;20426;-82
2022/05/28 09:41:53;;;;;;;9.47;4.93;;;15.00;97.90;;;;;;5099142;28;20549;-81
2022/05/28 09:44:33;;;;;;;9.83;5.60;;;14.90;97.50;;;;;;5100636;28;20495;-78
2022/05/28 09:47:08;;;;;;;10.20;5.43;;;14.70;97.60;;;;;;5102325;28;20439;-79
2022/05/28 09:49:47;;;;;;;12.00;5.20;;;14.70;97.70;;;;;;5100776;28;20436;-80
2022/05/28 09:52:24;;;;;;;11.20;7.10;;;14.60;97.80;;;;;;5099129;28;20501;-80
2022/05/28 09:54:52;;;;;;;10.03;6.10;;;14.60;97.90;;;;;;5098990;28;20436;-81
2022/05/28 09:57:26;;;;;;;8.20;5.77;;;14.60;97.90;;;;;;5098262;28;20543;-80
2022/05/28 09:59:59;;;;;;;7.10;5.50;;;14.80;98.00;;;;;;5099529;28;20435;-80
2022/05/28 10:02:30;;;;;;;7.33;4.67;;;14.80;98.00;;;;;;5098058;28;20439;-80
2022/05/28 10:05:08;;;;;;;7.80;4.93;;;14.90;97.90;;;;;;5098155;28;20482;-79
2022/05/28 10:07:41;;;;;;;6.73;4.10;;;15.00;97.60;;;;;;5098666;28;20535;-81
2022/05/28 10:10:18;;;;;;;6.30;4.03;;;15.00;97.30;;;;;;5098578;28;20444;-79
2022/05/28 10:12:47;;;;;;;6.63;3.97;;;15.10;97.10;;;;;;5097640;28;20963;-81
2022/05/28 10:15:19;;;;;;;8.17;4.87;;;15.10;97.00;;;;;;5098928;28;20437;-79
2022/05/28 10:17:56;;;;;;;7.33;4.90;;;15.10;96.80;;;;;;5097845;28;20456;-81
2022/05/28 10:20:24;;;;;;;9.27;5.07;;;15.20;96.80;;;;;;5099138;28;20428;-82
2022/05/28 10:22:55;;;;;;;7.97;5.40;;;15.30;96.60;;;;;;5097584;28;20438;-80
2022/05/28 10:25:35;;;;;;;11.03;4.50;;;15.40;96.50;;;;;;5097532;28;20456;-81
2022/05/28 10:28:07;;;;;;;11.13;4.73;;;15.40;96.50;;;;;;5097418;28;20807;-81
2022/05/28 10:30:38;;;;;;;9.43;5.90;;;15.60;96.70;;;;;;5097905;28;20453;-80
2022/05/28 10:33:09;;;;;;;10.47;5.37;;;15.70;96.60;;;;;;5099143;28;20555;-83
2022/05/28 10:35:37;;;;;;;10.23;5.30;;;15.80;96.60;;;;;;5097118;28;20457;-81
2022/05/28 10:38:13;;;;;;;8.00;5.20;;;15.80;96.10;;;;;;5097830;28;20448;-81
2022/05/28 10:40:49;;;;;;;12.97;5.37;;;15.80;96.00;;;;;;5096715;28;20440;-79
2022/05/28 10:43:27;;;;;;;9.37;5.87;;;15.90;96.00;;;;;;5098065;28;20551;-80
2022/05/28 10:46:05;;;;;;;11.40;5.77;;;15.90;95.60;;;;;;5098910;28;20510;-80
2022/05/28 10:48:38;;;;;;;9.87;5.47;;;15.80;95.50;;;;;;5098557;28;20445;-81
2022/05/28 10:51:19;;;;;;;13.07;5.90;;;15.60;95.60;;;;;;5098146;28;20833;-80
2022/05/28 10:54:24;;;;;;;8.67;5.70;;;15.50;95.80;;;;;;5097511;28;20426;-80
2022/05/28 10:56:56;;;;;;;11.33;5.70;;;15.40;95.90;;;;;;5096633;28;20527;-81
2022/05/28 10:59:47;;;;;;;13.13;6.60;;;15.40;96.10;;;;;;5098376;28;20421;-79
2022/05/28 11:02:50;;;;;;;12.97;6.97;;;15.30;96.20;;;;;;5096746;28;20494;-80
2022/05/28 11:05:31;;;;;;;11.63;6.20;;;15.50;96.80;;;;;;5089855;28;20566;-80
2022/05/28 11:08:11;;;;;;;12.30;6.17;;;15.50;96.30;;;;;;5096488;28;20526;-79
2022/05/28 11:10:57;;;;;;;11.13;6.00;;;15.60;96.00;;;;;;5096150;28;20448;-79
2022/05/28 11:13:44;;;;;;;9.43;6.17;;;15.50;95.70;;;;;;5095923;28;20439;-79
2022/05/28 11:16:47;;;;;;;13.43;6.33;;;15.60;95.10;;;;;;5095801;28;20456;-79
2022/05/28 11:19:28;;;;;;;9.00;5.20;;;15.70;94.40;;;;;;5097792;28;20435;-79
2022/05/28 11:22:38;;;;;;;10.17;5.27;;;15.70;94.40;;;;;;5095881;28;20450;-80
2022/05/28 11:25:12;;;;;;;11.80;5.80;;;15.80;94.10;;;;;;5096925;28;20459;-81
2022/05/28 11:27:48;;;;;;;11.43;5.50;;;15.70;93.90;;;;;;5094776;28;20458;-78
2022/05/28 11:30:20;;;;;;;11.60;6.03;;;15.70;93.60;;;;;;5095444;28;20469;-81
2022/05/28 11:32:53;;;;;;;9.73;4.47;;;15.60;93.20;;;;;;5094500;28;20472;-78
2022/05/28 11:35:34;;;;;;;8.43;5.10;;;15.70;92.80;;;;;;5094997;28;20435;-79
2022/05/28 11:38:09;;;;;;;9.40;5.70;;;15.70;92.60;;;;;;5095018;28;20483;-78
2022/05/28 11:40:49;;;;;;;11.00;4.80;;;15.70;92.60;;;;;;5096580;28;20469;-78
2022/05/28 11:43:21;;;;;;;9.93;5.97;;;15.70;92.50;;;;;;5096404;28;20464;-79
2022/05/28 11:45:56;;;;;;;12.90;5.60;;;15.70;92.20;;;;;;5096166;28;20427;-78
2022/05/28 11:51:27;;;;;;;7.87;4.50;;;15.80;92.20;;;;;;5094605;28;20535;-77
2022/05/28 11:51:30;;;;;;;7.70;5.10;;;15.90;92.10;;;;;;5093536;28;20821;-75
2022/05/28 11:54:05;;;;;;;11.57;6.20;;;15.90;92.00;;;;;;5096739;28;20434;-78
2022/05/28 11:56:33;;;;;;;9.60;6.53;;;15.90;91.60;;;;;;5095230;28;20474;-79
2022/05/28 11:59:08;;;;;;;12.40;5.20;;;15.90;91.80;;;;;;5096148;28;20919;-78
2022/05/28 12:01:47;;;;;;;16.20;5.50;;;15.80;91.90;;;;;;5096360;28;20488;-77
2022/05/28 12:04:16;;;;;;;7.70;4.40;;;15.70;91.70;;;;;;5094422;28;21000;-79
2022/05/28 12:06:48;;;;;;;16.70;5.97;;;15.60;91.80;;;;;;5094499;28;20495;-80
2022/05/28 12:09:27;;;;;;;9.53;5.03;;;15.40;91.70;;;;;;5095968;28;20396;-79
2022/05/28 12:12:13;;;;;;;8.70;5.63;;;15.40;91.70;;;;;;5094630;28;20426;-78
2022/05/28 12:14:44;;;;;;;8.57;4.80;;;15.40;91.70;;;;;;5095794;28;20476;-78
2022/05/28 12:17:27;;;;;;;10.57;5.70;;;15.50;91.70;;;;;;5096106;28;20436;-78
2022/05/28 12:19:58;;;;;;;10.30;5.63;;;15.50;91.50;;;;;;5094541;28;20436;-79
2022/05/28 12:22:36;;;;;;;9.20;5.07;;;15.50;91.30;;;;;;5094879;28;20440;-79
2022/05/28 12:25:21;;;;;;;9.97;4.60;;;15.50;91.20;;;;;;5094421;28;20439;-81
2022/05/28 12:28:08;;;;;;;6.83;4.57;;;15.60;90.90;;;;;;5095902;28;20427;-79
2022/05/28 12:30:51;;;;;;;9.10;4.77;;;15.70;91.00;;;;;;5095652;28;20756;-77
2022/05/28 12:33:27;;;;;;;8.83;4.80;;;15.80;90.90;;;;;;5095060;28;20981;-81
2022/05/28 12:36:08;;;;;;;10.13;5.20;;;15.90;91.10;;;;;;5097268;28;20420;-82
2022/05/28 12:38:49;;;;;;;12.07;5.03;;;15.90;91.10;;;;;;5095947;28;20960;-79
2022/05/28 12:41:21;;;;;;;8.10;4.70;;;15.90;91.00;;;;;;5095850;28;20452;-80
2022/05/28 12:44:03;;;;;;;9.73;4.53;;;15.80;91.00;;;;;;5096068;28;20534;-81
2022/05/28 12:46:45;;;;;;;7.67;4.60;;;15.70;90.90;;;;;;5096097;28;20438;-80
2022/05/28 12:49:26;;;;;;;11.00;5.30;;;15.70;91.00;;;;;;5095456;28;20438;-81
2022/05/28 12:52:29;;;;;;;6.93;4.13;;;15.70;90.60;;;;;;5096048;28;20436;-78
2022/05/28 12:55:04;;;;;;;10.73;5.10;;;15.80;90.60;;;;;;5095427;28;20546;-80
2022/05/28 12:57:35;;;;;;;9.20;5.13;;;15.80;90.70;;;;;;5095579;28;20538;-81
2022/05/28 13:00:08;;;;;;;9.87;4.73;;;15.80;90.60;;;;;;5095370;28;20464;-80
2022/05/28 13:02:41;;;;;;;7.80;4.97;;;15.90;90.50;;;;;;5095055;28;20515;-79
2022/05/28 13:05:13;;;;;;;8.63;4.93;;;16.00;90.30;;;;;;5100251;28;20420;-80
2022/05/28 13:07:46;;;;;;;10.60;4.33;;;16.00;90.10;;;;;;5099356;28;20517;-80
2022/05/28 13:10:17;;;;;;;9.80;5.50;;;15.90;90.10;;;;;;5100719;28;20427;-79
2022/05/28 13:12:52;;;;;;;8.00;4.70;;;15.80;90.10;;;;;;5099520;28;20471;-79